createdAt,value
2022-09-26T00:01:33.541Z,99198.88
2022-09-26T00:04:07.361Z,99195.50
2022-09-26T00:06:34.396Z,99197.19
2022-09-26T00:09:01.568Z,99184.47
2022-09-26T00:11:32.279Z,99178.56
2022-09-26T00:14:05.195Z,99176.03
2022-09-26T00:16:32.731Z,99169.25
2022-09-26T00:19:00.046Z,99172.63
2022-09-26T00:21:29.946Z,99164.94
2022-09-26T00:23:59.110Z,99164.09
2022-09-26T00:26:28.389Z,99158.16
2022-09-26T00:28:56.429Z,99158.16
2022-09-26T00:31:29.813Z,99153.09
2022-09-26T00:33:57.994Z,99152.31
2022-09-26T00:36:37.010Z,99148.06
2022-09-26T00:39:06.642Z,99154.97
2022-09-26T00:41:33.481Z,99147.38
2022-09-26T00:44:00.420Z,99139.81
2022-09-26T00:46:46.456Z,99140.72
2022-09-26T00:49:34.020Z,99137.41
2022-09-26T00:52:28.250Z,99132.47
2022-09-26T00:55:01.222Z,99119.00
2022-09-26T00:57:49.629Z,99127.56
2022-09-26T01:00:16.549Z,99114.88
2022-09-26T01:02:46.883Z,99114.81
2022-09-26T01:05:19.992Z,99109.78
2022-09-26T01:07:48.049Z,99106.41
2022-09-26T01:10:16.108Z,99108.09
2022-09-26T01:12:43.812Z,99095.34
2022-09-26T01:15:11.667Z,99100.44
2022-09-26T01:17:41.375Z,99091.97
2022-09-26T01:20:26.445Z,99090.25
2022-09-26T01:23:37.997Z,99082.56
2022-09-26T01:26:27.320Z,99080.06
2022-09-26T01:29:37.126Z,99079.13
2022-09-26T01:32:57.331Z,99076.53
2022-09-26T01:36:02.505Z,99073.13
2022-09-26T01:39:17.803Z,99071.34
2022-09-26T01:41:57.628Z,99064.50
2022-09-26T01:44:55.026Z,99060.13
2022-09-26T01:47:50.193Z,99060.13
2022-09-26T01:50:58.576Z,99058.34
2022-09-26T01:53:31.224Z,99057.44
2022-09-26T01:56:11.095Z,99056.47
2022-09-26T01:58:51.781Z,99059.66
2022-09-26T02:01:22.026Z,99051.97
2022-09-26T02:04:07.905Z,99040.00
2022-09-26T02:07:04.005Z,99035.63
2022-09-26T02:09:41.315Z,99041.63
2022-09-26T02:12:16.291Z,99039.75
2022-09-26T02:14:45.831Z,99032.91
2022-09-26T02:17:22.722Z,99024.28
2022-09-26T02:20:29.494Z,99018.25
2022-09-26T02:22:59.260Z,99019.97
2022-09-26T02:25:28.299Z,99014.81
2022-09-26T02:27:55.349Z,99008.78
2022-09-26T02:30:22.345Z,99004.47
2022-09-26T02:32:49.659Z,99005.16
2022-09-26T02:35:36.301Z,98994.13
2022-09-26T02:38:05.543Z,98997.50
2022-09-26T02:41:38.836Z,98980.59
2022-09-26T02:44:27.381Z,98971.31
2022-09-26T02:47:10.677Z,98969.56
2022-09-26T02:50:34.503Z,98968.69
2022-09-26T02:53:54.746Z,98963.72
2022-09-26T02:56:56.770Z,98951.94
2022-09-26T02:59:42.315Z,98940.88
2022-09-26T03:02:19.169Z,98933.16
2022-09-26T03:04:58.223Z,98929.69
2022-09-26T03:07:35.397Z,98931.31
2022-09-26T03:10:06.301Z,98925.31
2022-09-26T03:12:34.082Z,98921.84
2022-09-26T03:15:05.959Z,98920.13
2022-09-26T03:17:37.493Z,98917.50
2022-09-26T03:20:14.763Z,98907.41
2022-09-26T03:22:43.442Z,98909.97
2022-09-26T03:25:16.505Z,98894.72
2022-09-26T03:27:44.476Z,98887.88
2022-09-26T03:30:14.605Z,98887.88
2022-09-26T03:32:41.422Z,98877.63
2022-09-26T03:35:09.766Z,98875.94
2022-09-26T03:37:37.341Z,98866.53
2022-09-26T03:40:07.916Z,98858.91
2022-09-26T03:42:35.259Z,98851.28
2022-09-26T03:45:05.022Z,98856.47
2022-09-26T03:47:31.777Z,98848.06
2022-09-26T03:49:58.512Z,98843.91
2022-09-26T03:52:26.024Z,98845.69
2022-09-26T03:54:53.360Z,98833.00
2022-09-26T03:57:21.057Z,98838.97
2022-09-26T03:59:48.176Z,98829.72
2022-09-26T04:02:16.904Z,98812.84
2022-09-26T04:04:43.843Z,98816.38
2022-09-26T04:07:10.764Z,98807.91
2022-09-26T04:09:37.542Z,98815.56
2022-09-26T04:12:04.303Z,98814.78
2022-09-26T04:14:31.556Z,98804.66
2022-09-26T04:16:58.420Z,98802.16
2022-09-26T04:19:26.605Z,98794.50
2022-09-26T04:21:53.376Z,98795.38
2022-09-26T04:24:21.233Z,98785.25
2022-09-26T04:26:48.446Z,98784.38
2022-09-26T04:29:15.991Z,98785.25
2022-09-26T04:31:43.265Z,98776.78
2022-09-26T04:34:11.506Z,98773.44
2022-09-26T04:36:39.739Z,98768.38
2022-09-26T04:39:06.871Z,98760.75
2022-09-26T04:41:33.815Z,98760.81
2022-09-26T04:44:01.794Z,98749.81
2022-09-26T04:46:31.357Z,98757.41
2022-09-26T04:49:00.833Z,98739.59
2022-09-26T04:51:29.559Z,98743.81
2022-09-26T04:53:56.791Z,98739.59
2022-09-26T04:56:26.604Z,98730.28
2022-09-26T04:58:56.314Z,98737.94
2022-09-26T05:01:24.388Z,98739.66
2022-09-26T05:03:51.411Z,98727.78
2022-09-26T05:06:18.305Z,98717.69
2022-09-26T05:08:49.063Z,98722.78
2022-09-26T05:11:18.414Z,98712.63
2022-09-26T05:13:45.620Z,98714.38
2022-09-26T05:16:14.419Z,98707.59
2022-09-26T05:18:41.654Z,98692.31
2022-09-26T05:21:08.909Z,98690.56
2022-09-26T05:23:55.473Z,98686.34
2022-09-26T05:26:36.430Z,98688.03
2022-09-26T05:29:08.441Z,98679.56
2022-09-26T05:31:37.731Z,98670.09
2022-09-26T05:34:07.340Z,98673.41
2022-09-26T05:36:34.638Z,98670.72
2022-09-26T05:39:01.878Z,98672.28
2022-09-26T05:41:31.131Z,98666.31
2022-09-26T05:43:58.363Z,98661.16
2022-09-26T05:46:27.041Z,98650.84
2022-09-26T05:48:55.739Z,98649.16
2022-09-26T05:51:23.346Z,98650.78
2022-09-26T05:53:50.235Z,98647.34
2022-09-26T05:56:19.665Z,98632.81
2022-09-26T05:58:47.178Z,98640.34
2022-09-26T06:01:18.167Z,98629.19
2022-09-26T06:03:47.022Z,98634.97
2022-09-26T06:06:17.474Z,98627.94
2022-09-26T06:08:45.764Z,98632.88
2022-09-26T06:11:18.970Z,98626.78
2022-09-26T06:13:46.599Z,98622.47
2022-09-26T06:16:18.539Z,98615.59
2022-09-26T06:18:46.971Z,98613.81
2022-09-26T06:21:17.377Z,98611.09
2022-09-26T06:23:45.001Z,98598.25
2022-09-26T06:26:25.153Z,98602.34
2022-09-26T06:28:58.693Z,98605.59
2022-09-26T06:31:26.853Z,98600.38
2022-09-26T06:33:55.716Z,98600.22
2022-09-26T06:36:28.396Z,98599.22
2022-09-26T06:38:55.923Z,98587.13
2022-09-26T06:41:23.405Z,98590.34
2022-09-26T06:43:50.644Z,98583.47
2022-09-26T06:46:17.606Z,98583.25
2022-09-26T06:48:44.462Z,98577.19
2022-09-26T06:51:13.886Z,98576.13
2022-09-26T06:53:41.563Z,98575.97
2022-09-26T06:56:08.302Z,98576.69
2022-09-26T06:58:35.225Z,98571.53
2022-09-26T07:01:02.910Z,98562.09
2022-09-26T07:03:30.015Z,98567.94
2022-09-26T07:05:58.264Z,98560.25
2022-09-26T07:08:50.102Z,98551.66
2022-09-26T07:11:35.301Z,98555.16
2022-09-26T07:14:01.946Z,98548.38
2022-09-26T07:16:29.312Z,98544.97
2022-09-26T07:18:56.980Z,98547.59
2022-09-26T07:21:24.127Z,98549.44
2022-09-26T07:23:50.898Z,98552.94
2022-09-26T07:26:17.635Z,98542.03
2022-09-26T07:28:44.683Z,98541.31
2022-09-26T07:31:11.880Z,98540.81
2022-09-26T07:33:40.123Z,98534.09
2022-09-26T07:36:09.699Z,98524.00
2022-09-26T07:38:36.669Z,98518.22
2022-09-26T07:41:04.299Z,98525.16
2022-09-26T07:44:04.596Z,98515.03
2022-09-26T07:46:36.402Z,98499.84
2022-09-26T07:49:21.945Z,98502.59
2022-09-26T07:51:49.628Z,98492.19
2022-09-26T07:54:18.265Z,98490.44
2022-09-26T07:56:45.599Z,98493.66
2022-09-26T07:59:12.562Z,98488.34
2022-09-26T08:01:40.047Z,98489.78
2022-09-26T08:04:07.019Z,98492.25
2022-09-26T08:06:37.658Z,98484.28
2022-09-26T08:09:04.647Z,98476.34
2022-09-26T08:11:31.883Z,98474.34
2022-09-26T08:13:58.616Z,98465.78
2022-09-26T08:16:25.956Z,98466.25
2022-09-26T08:18:54.394Z,98460.91
2022-09-26T08:21:23.002Z,98455.47
2022-09-26T08:23:49.858Z,98457.81
2022-09-26T08:26:21.461Z,98464.38
2022-09-26T08:28:48.184Z,98462.25
2022-09-26T08:31:16.410Z,98455.97
2022-09-26T08:33:44.089Z,98448.88
2022-09-26T08:36:16.687Z,98450.91
2022-09-26T08:38:43.639Z,98442.91
2022-09-26T08:41:52.178Z,98439.03
2022-09-26T08:44:58.049Z,98436.25
2022-09-26T08:47:53.092Z,98437.44
2022-09-26T08:50:33.753Z,98421.56
2022-09-26T08:53:15.502Z,98416.81
2022-09-26T08:55:46.294Z,98418.13
2022-09-26T08:58:19.752Z,98421.34
2022-09-26T09:00:55.143Z,98418.72
2022-09-26T09:03:49.495Z,98409.47
2022-09-26T09:06:17.735Z,98418.25
2022-09-26T09:08:50.502Z,98409.13
2022-09-26T09:11:50.777Z,98408.06
2022-09-26T09:15:13.681Z,98407.00
2022-09-26T09:18:13.398Z,98406.63
2022-09-26T09:21:17.093Z,98394.53
2022-09-26T09:23:58.752Z,98403.34
2022-09-26T09:30:24.343Z,98392.31
2022-09-26T09:33:49.212Z,98407.78
2022-09-26T09:36:23.305Z,98391.09
2022-09-26T09:38:51.271Z,98396.31
2022-09-26T09:41:36.265Z,98393.91
2022-09-26T09:44:29.496Z,98394.03
2022-09-26T09:46:56.369Z,98385.69
2022-09-26T09:49:24.667Z,98385.53
2022-09-26T09:52:29.095Z,98376.84
2022-09-26T09:55:43.159Z,98364.00
2022-09-26T09:58:44.128Z,98375.00
2022-09-26T10:01:18.882Z,98362.06
2022-09-26T10:04:07.071Z,98355.00
2022-09-26T10:06:45.135Z,98357.44
2022-09-26T10:09:38.773Z,98342.66
2022-09-26T10:12:20.043Z,98343.31
2022-09-26T10:14:55.022Z,98332.00
2022-09-26T10:17:23.795Z,98339.31
2022-09-26T10:19:51.938Z,98311.03
2022-09-26T10:22:37.106Z,98305.69
2022-09-26T10:25:16.019Z,98312.13
2022-09-26T10:27:53.082Z,98303.28
2022-09-26T10:30:20.065Z,98294.28
2022-09-26T10:32:56.076Z,98294.72
2022-09-26T10:35:45.291Z,98287.56
2022-09-26T10:38:29.506Z,98260.09
2022-09-26T10:41:03.332Z,98257.97
2022-09-26T10:43:40.564Z,98246.28
2022-09-26T10:46:16.269Z,98239.53
2022-09-26T10:48:53.753Z,98249.03
2022-09-26T10:51:45.462Z,98239.63
2022-09-26T10:54:32.869Z,98241.22
2022-09-26T10:57:00.831Z,98241.03
2022-09-26T10:59:36.141Z,98238.13
2022-09-26T11:02:04.342Z,98226.22
2022-09-26T11:04:53.853Z,98213.53
2022-09-26T11:07:27.844Z,98218.16
2022-09-26T11:10:01.968Z,98216.88
2022-09-26T11:12:35.285Z,98213.22
2022-09-26T11:15:13.199Z,98197.56
2022-09-26T11:17:55.472Z,98190.59
2022-09-26T11:20:50.570Z,98193.16
2022-09-26T11:23:43.653Z,98188.88
2022-09-26T11:26:45.031Z,98182.75
2022-09-26T11:29:55.661Z,98166.16
2022-09-26T11:32:41.392Z,98163.94
2022-09-26T11:35:28.872Z,98156.69
2022-09-26T11:38:46.666Z,98163.94
2022-09-26T11:41:51.123Z,98155.97
2022-09-26T11:44:39.713Z,98139.50
2022-09-26T11:47:36.848Z,98141.06
2022-09-26T11:50:25.187Z,98142.06
2022-09-26T11:53:26.170Z,98138.84
2022-09-26T11:56:01.083Z,98139.75
2022-09-26T11:58:47.472Z,98136.34
2022-09-26T12:01:45.769Z,98122.31
2022-09-26T12:04:49.915Z,98132.44
2022-09-26T12:07:48.064Z,98134.00
2022-09-26T12:10:57.557Z,98133.88
2022-09-26T12:13:54.776Z,98112.50
2022-09-26T12:16:37.787Z,98130.53
2022-09-26T12:19:40.250Z,98120.63
2022-09-26T12:22:36.089Z,98125.50
2022-09-26T12:25:36.058Z,98116.34
2022-09-26T12:28:48.305Z,98105.22
2022-09-26T12:32:01.744Z,98102.56
2022-09-26T12:34:55.162Z,98089.34
2022-09-26T12:37:58.467Z,98109.91
2022-09-26T12:41:19.861Z,98105.19
2022-09-26T12:44:10.951Z,98104.56
2022-09-26T12:47:23.963Z,98095.94
2022-09-26T12:50:31.116Z,98102.69
2022-09-26T12:53:11.917Z,98108.97
2022-09-26T12:55:47.393Z,98094.72
2022-09-26T12:58:42.207Z,98098.56
2022-09-26T13:01:37.806Z,98095.84
2022-09-26T13:04:49.430Z,98088.88
2022-09-26T13:07:53.718Z,98079.56
2022-09-26T13:10:38.990Z,98081.38
2022-09-26T13:13:27.710Z,98081.38
2022-09-26T13:16:13.738Z,98074.50
2022-09-26T13:19:13.418Z,98069.47
2022-09-26T13:22:21.018Z,98065.09
2022-09-26T13:25:17.570Z,98063.44
2022-09-26T13:27:51.254Z,98055.66
2022-09-26T13:30:28.155Z,98061.53
2022-09-26T13:33:25.030Z,98041.75
2022-09-26T13:35:56.271Z,98045.06
2022-09-26T13:38:39.136Z,98050.84
2022-09-26T13:41:38.499Z,98035.50
2022-09-26T13:44:28.242Z,98028.75
2022-09-26T13:47:34.645Z,98032.31
2022-09-26T13:50:27.085Z,98029.22
2022-09-26T13:53:23.733Z,98022.63
2022-09-26T13:56:30.641Z,98028.19
2022-09-26T13:59:12.073Z,98021.03
2022-09-26T14:02:15.711Z,98018.25
2022-09-26T14:04:50.221Z,98024.72
2022-09-26T14:08:03.038Z,98014.00
2022-09-26T14:10:39.028Z,98000.81
2022-09-26T14:13:21.825Z,98003.47
2022-09-26T14:15:48.557Z,97980.41
2022-09-26T14:18:34.310Z,97993.13
2022-09-26T14:21:16.146Z,97985.44
2022-09-26T14:23:46.249Z,97972.63
2022-09-26T14:26:21.177Z,97981.13
2022-09-26T14:29:13.845Z,97979.50
2022-09-26T14:31:42.384Z,97976.38
2022-09-26T14:34:20.736Z,97968.03
2022-09-26T14:36:50.750Z,97983.78
2022-09-26T14:39:41.754Z,97956.34
2022-09-26T14:42:18.547Z,97957.75
2022-09-26T14:45:17.202Z,97955.72
2022-09-26T14:47:55.069Z,97949.03
2022-09-26T14:50:35.274Z,97956.84
2022-09-26T14:53:21.020Z,97950.66
2022-09-26T14:55:59.059Z,97945.47
2022-09-26T14:58:48.390Z,97944.53
2022-09-26T15:01:38.785Z,97941.84
2022-09-26T15:04:29.737Z,97930.84
2022-09-26T15:07:12.924Z,97929.84
2022-09-26T15:09:48.801Z,97926.47
2022-09-26T15:12:39.757Z,97908.56
2022-09-26T15:15:19.287Z,97918.81
2022-09-26T15:17:57.410Z,97917.97
2022-09-26T15:20:26.381Z,97921.19
2022-09-26T15:22:57.291Z,97908.94
2022-09-26T15:25:31.520Z,97903.84
2022-09-26T15:27:59.951Z,97908.84
2022-09-26T15:30:37.208Z,97909.03
2022-09-26T15:33:04.700Z,97898.00
2022-09-26T15:35:32.894Z,97887.09
2022-09-26T15:38:11.547Z,97897.50
2022-09-26T15:40:38.577Z,97885.63
2022-09-26T15:43:20.576Z,97888.25
2022-09-26T15:45:47.586Z,97874.91
2022-09-26T15:48:20.139Z,97877.63
2022-09-26T15:50:53.215Z,97870.13
2022-09-26T15:53:41.692Z,97870.28
2022-09-26T15:56:51.494Z,97865.34
2022-09-26T15:59:26.264Z,97866.53
2022-09-26T16:01:54.187Z,97875.13
2022-09-26T16:04:27.130Z,97869.19
2022-09-26T16:07:03.463Z,97851.53
2022-09-26T16:09:38.734Z,97867.06
2022-09-26T16:12:19.449Z,97869.03
2022-09-26T16:15:13.959Z,97846.34
2022-09-26T16:17:49.188Z,97853.72
2022-09-26T16:20:23.818Z,97843.81
2022-09-26T16:22:52.884Z,97849.22
2022-09-26T16:25:19.643Z,97845.38
2022-09-26T16:27:52.503Z,97839.69
2022-09-26T16:30:27.760Z,97843.47
2022-09-26T16:33:02.445Z,97843.88
2022-09-26T16:35:33.476Z,97833.16
2022-09-26T16:38:23.061Z,97830.94
2022-09-26T16:40:56.359Z,97833.91
2022-09-26T16:43:32.892Z,97825.66
2022-09-26T16:46:13.521Z,97833.63
2022-09-26T16:48:50.871Z,97836.44
2022-09-26T16:51:25.073Z,97829.09
2022-09-26T16:53:56.205Z,97831.97
2022-09-26T16:56:24.792Z,97833.94
2022-09-26T16:58:59.843Z,97841.00
2022-09-26T17:01:46.222Z,97844.66
2022-09-26T17:04:22.092Z,97839.94
2022-09-26T17:06:49.007Z,97840.19
2022-09-26T17:09:29.673Z,97840.34
2022-09-26T17:12:15.363Z,97831.28
2022-09-26T17:14:44.556Z,97837.28
2022-09-26T17:17:17.018Z,97839.91
2022-09-26T17:19:47.497Z,97838.34
2022-09-26T17:22:19.129Z,97830.91
2022-09-26T17:24:47.893Z,97824.16
2022-09-26T17:27:23.435Z,97830.97
2022-09-26T17:29:53.222Z,97827.69
2022-09-26T17:32:45.468Z,97824.28
2022-09-26T17:35:20.070Z,97817.63
2022-09-26T17:37:46.813Z,97823.63
2022-09-26T17:40:19.068Z,97819.56
2022-09-26T17:42:46.475Z,97824.69
2022-09-26T17:45:13.518Z,97820.63
2022-09-26T17:47:40.820Z,97815.63
2022-09-26T17:50:17.212Z,97809.75
2022-09-26T17:52:44.158Z,97818.38
2022-09-26T17:55:11.602Z,97810.88
2022-09-26T17:57:41.753Z,97813.59
2022-09-26T18:00:11.510Z,97812.91
2022-09-26T18:02:44.915Z,97818.22
2022-09-26T18:05:28.546Z,97819.44
2022-09-26T18:08:01.666Z,97814.94
2022-09-26T18:10:33.814Z,97807.75
2022-09-26T18:13:12.725Z,97810.53
2022-09-26T18:15:40.110Z,97815.03
2022-09-26T18:18:16.790Z,97814.25
2022-09-26T18:20:45.567Z,97822.81
2022-09-26T18:23:29.025Z,97817.88
2022-09-26T18:25:59.385Z,97817.19
2022-09-26T18:28:26.192Z,97818.03
2022-09-26T18:30:58.957Z,97818.84
2022-09-26T18:33:29.504Z,97818.03
2022-09-26T18:35:57.692Z,97820.50
2022-09-26T18:38:24.423Z,97824.75
2022-09-26T18:40:55.431Z,97822.38
2022-09-26T18:43:27.510Z,97827.47
2022-09-26T18:45:54.291Z,97820.78
2022-09-26T18:48:32.662Z,97826.84
2022-09-26T18:51:00.388Z,97828.59
2022-09-26T18:53:30.312Z,97821.84
2022-09-26T18:56:15.961Z,97822.72
2022-09-26T18:58:43.898Z,97822.03
2022-09-26T19:01:26.125Z,97830.53
2022-09-26T19:03:54.706Z,97837.34
2022-09-26T19:06:26.570Z,97832.22
2022-09-26T19:08:59.982Z,97833.97
2022-09-26T19:11:29.253Z,97831.56
2022-09-26T19:14:00.296Z,97835.91
2022-09-26T19:16:27.076Z,97829.19
2022-09-26T19:18:53.922Z,97836.84
2022-09-26T19:21:31.451Z,97837.69
2022-09-26T19:24:20.464Z,97840.28
2022-09-26T19:26:57.550Z,97828.38
2022-09-26T19:29:43.553Z,97835.19
2022-09-26T19:32:23.575Z,97831.81
2022-09-26T19:34:58.537Z,97830.94
2022-09-26T19:37:25.362Z,97832.56
2022-09-26T19:39:52.159Z,97838.38
2022-09-26T19:42:18.971Z,97833.34
2022-09-26T19:44:45.720Z,97835.09
2022-09-26T19:47:23.534Z,97825.84
2022-09-26T19:49:53.541Z,97825.06
2022-09-26T19:52:22.047Z,97820.81
2022-09-26T19:54:49.272Z,97825.06
2022-09-26T19:57:19.722Z,97810.69
2022-09-26T19:59:47.814Z,97817.50
2022-09-26T20:02:21.562Z,97818.41
2022-09-26T20:04:50.541Z,97817.66
2022-09-26T20:07:19.344Z,97819.38
2022-09-26T20:09:47.339Z,97818.63
2022-09-26T20:12:14.820Z,97809.41
2022-09-26T20:14:41.602Z,97821.38
2022-09-26T20:17:30.684Z,97817.25
2022-09-26T20:19:59.107Z,97819.06
2022-09-26T20:22:26.425Z,97815.75
2022-09-26T20:24:57.074Z,97823.41
2022-09-26T20:27:27.985Z,97815.75
2022-09-26T20:30:15.959Z,97808.19
2022-09-26T20:32:43.063Z,97817.56
2022-09-26T20:35:16.176Z,97818.38
2022-09-26T20:37:44.388Z,97816.63
2022-09-26T20:40:20.958Z,97812.41
2022-09-26T20:42:55.212Z,97806.38
2022-09-26T20:45:30.233Z,97809.00
2022-09-26T20:47:59.421Z,97812.41
2022-09-26T20:50:34.119Z,97807.38
2022-09-26T20:53:01.715Z,97802.28
2022-09-26T20:55:32.265Z,97809.91
2022-09-26T20:57:59.682Z,97809.16
2022-09-26T21:00:26.420Z,97801.66
2022-09-26T21:02:55.966Z,97797.38
2022-09-26T21:05:27.262Z,97799.13
2022-09-26T21:07:56.295Z,97796.56
2022-09-26T21:10:32.087Z,97801.78
2022-09-26T21:13:00.350Z,97797.59
2022-09-26T21:15:30.845Z,97803.59
2022-09-26T21:17:58.548Z,97796.78
2022-09-26T21:20:31.155Z,97798.56
2022-09-26T21:23:01.799Z,97793.53
2022-09-26T21:25:31.573Z,97803.78
2022-09-26T21:28:02.925Z,97797.13
2022-09-26T21:30:30.464Z,97793.75
2022-09-26T21:32:59.747Z,97795.47
2022-09-26T21:35:30.935Z,97802.28
2022-09-26T21:38:00.719Z,97787.09
2022-09-26T21:40:31.293Z,97804.91
2022-09-26T21:43:14.345Z,97806.63
2022-09-26T21:45:46.032Z,97794.13
2022-09-26T21:48:15.169Z,97792.53
2022-09-26T21:50:58.139Z,97788.41
2022-09-26T21:53:45.640Z,97791.91
2022-09-26T21:56:28.650Z,97787.03
2022-09-26T21:58:56.738Z,97788.03
2022-09-26T22:01:24.061Z,97791.53
2022-09-26T22:03:50.945Z,97796.66
2022-09-26T22:06:17.681Z,97788.22
2022-09-26T22:08:44.413Z,97792.53
2022-09-26T22:11:11.220Z,97783.31
2022-09-26T22:13:38.779Z,97783.53
2022-09-26T22:16:09.100Z,97789.53
2022-09-26T22:18:37.284Z,97786.34
2022-09-26T22:21:04.655Z,97778.78
2022-09-26T22:23:35.528Z,97785.63
2022-09-26T22:26:02.831Z,97784.03
2022-09-26T22:28:30.148Z,97786.56
2022-09-26T22:31:04.747Z,97787.53
2022-09-26T22:33:33.413Z,97785.09
2022-09-26T22:36:00.226Z,97785.19
2022-09-26T22:38:26.987Z,97784.44
2022-09-26T22:41:03.609Z,97788.75
2022-09-26T22:43:32.473Z,97783.81
2022-09-26T22:46:13.646Z,97781.34
2022-09-26T22:48:43.886Z,97784.00
2022-09-26T22:51:10.893Z,97782.31
2022-09-26T22:53:39.806Z,97784.13
2022-09-26T22:56:10.133Z,97789.19
2022-09-26T22:58:49.284Z,97792.63
2022-09-26T23:01:23.274Z,97798.69
2022-09-26T23:03:54.676Z,97798.69
2022-09-26T23:06:24.919Z,97805.50
2022-09-26T23:08:52.453Z,97804.81
2022-09-26T23:11:25.692Z,97814.03
2022-09-26T23:13:52.960Z,97826.81
2022-09-26T23:16:23.370Z,97815.06
2022-09-26T23:18:51.791Z,97819.44
2022-09-26T23:21:21.906Z,97818.72
2022-09-26T23:23:54.855Z,97828.16
2022-09-26T23:26:28.807Z,97825.72
2022-09-26T23:28:57.600Z,97826.69
2022-09-26T23:31:27.196Z,97828.47
2022-09-26T23:33:54.904Z,97836.13
2022-09-26T23:36:22.223Z,97836.19
2022-09-26T23:38:49.819Z,97833.69
2022-09-26T23:41:17.172Z,97832.94
2022-09-26T23:43:46.212Z,97831.34
2022-09-26T23:46:13.663Z,97832.22
2022-09-26T23:48:40.822Z,97833.09
2022-09-26T23:51:07.873Z,97836.56
2022-09-26T23:53:34.988Z,97832.47
2022-09-26T23:56:08.396Z,97831.72
2022-09-26T23:58:36.977Z,97843.66
